createdAt,value
2023-03-21T00:00:48.436Z,8.56
2023-03-21T00:03:16.547Z,8.54
2023-03-21T00:05:49.968Z,8.48
2023-03-21T00:08:17.774Z,8.48
2023-03-21T00:10:45.775Z,8.48
2023-03-21T00:13:14.018Z,8.49
2023-03-21T00:16:06.294Z,8.51
2023-03-21T00:18:41.770Z,8.56
2023-03-21T00:24:00.961Z,8.59
2023-03-21T00:26:29.070Z,8.58
2023-03-21T00:28:56.698Z,8.59
2023-03-21T00:31:25.886Z,8.63
2023-03-21T00:33:53.687Z,8.64
2023-03-21T00:36:21.710Z,8.67
2023-03-21T00:38:49.376Z,8.68
2023-03-21T00:41:26.332Z,8.68
2023-03-21T00:44:04.968Z,8.69
2023-03-21T00:46:43.910Z,8.70
2023-03-21T00:49:17.090Z,8.68
2023-03-21T00:51:44.972Z,8.67
2023-03-21T00:54:14.087Z,8.63
2023-03-21T00:56:45.114Z,8.62
2023-03-21T00:59:12.748Z,8.64
2023-03-21T01:01:41.930Z,8.62
2023-03-21T01:04:13.638Z,8.64
2023-03-21T01:06:42.833Z,8.65
2023-03-21T01:09:14.204Z,8.67
2023-03-21T01:11:42.235Z,8.65
2023-03-21T01:14:21.889Z,8.64
2023-03-21T01:16:53.133Z,8.65
2023-03-21T01:19:35.187Z,8.64
2023-03-21T01:22:08.853Z,8.62
2023-03-21T01:24:40.576Z,8.59
2023-03-21T01:27:11.305Z,8.60
2023-03-21T01:29:38.898Z,8.58
2023-03-21T01:32:08.041Z,8.53
2023-03-21T01:34:36.209Z,8.52
2023-03-21T01:37:04.456Z,8.47
2023-03-21T01:39:37.060Z,8.42
2023-03-21T01:42:05.322Z,8.33
2023-03-21T01:44:32.959Z,8.28
2023-03-21T01:47:11.077Z,8.28
2023-03-21T01:49:50.560Z,8.24
2023-03-21T01:52:36.689Z,8.25
2023-03-21T01:55:12.548Z,8.21
2023-03-21T01:58:04.324Z,8.21
2023-03-21T02:00:41.691Z,8.26
2023-03-21T02:03:34.932Z,8.25
2023-03-21T02:06:22.047Z,8.27
2023-03-21T02:08:55.556Z,8.25
2023-03-21T02:11:23.782Z,8.26
2023-03-21T02:14:01.122Z,8.32
2023-03-21T02:16:50.324Z,8.40
2023-03-21T02:19:53.396Z,8.40
2023-03-21T02:22:46.304Z,8.47
2023-03-21T02:25:31.856Z,8.54
2023-03-21T02:28:07.944Z,8.59
2023-03-21T02:31:03.950Z,8.66
2023-03-21T02:33:49.252Z,8.73
2023-03-21T02:36:26.009Z,8.76
2023-03-21T02:39:00.880Z,8.80
2023-03-21T02:41:40.445Z,8.81
2023-03-21T02:44:17.968Z,8.82
2023-03-21T02:47:02.916Z,8.80
2023-03-21T02:49:42.889Z,8.74
2023-03-21T02:52:31.885Z,8.72
2023-03-21T02:55:13.565Z,8.66
2023-03-21T02:57:52.466Z,8.65
2023-03-21T03:00:23.268Z,8.64
2023-03-21T03:03:06.329Z,8.56
2023-03-21T03:05:42.925Z,8.57
2023-03-21T03:08:32.469Z,8.54
2023-03-21T03:11:22.301Z,8.50
2023-03-21T03:14:15.528Z,8.47
2023-03-21T03:17:02.845Z,8.43
2023-03-21T03:19:41.685Z,8.40
2023-03-21T03:22:24.647Z,8.39
2023-03-21T03:25:02.860Z,8.38
2023-03-21T03:27:40.073Z,8.38
2023-03-21T03:30:11.074Z,8.38
2023-03-21T03:32:44.915Z,8.33
2023-03-21T03:35:15.903Z,8.32
2023-03-21T03:37:46.793Z,8.34
2023-03-21T03:40:20.182Z,8.35
2023-03-21T03:43:04.511Z,8.40
2023-03-21T03:45:43.569Z,8.50
2023-03-21T03:48:19.498Z,8.62
2023-03-21T03:50:52.847Z,8.66
2023-03-21T03:53:31.837Z,8.68
2023-03-21T03:56:01.613Z,8.60
2023-03-21T03:58:44.548Z,8.51
2023-03-21T04:01:15.289Z,8.48
2023-03-21T04:03:50.548Z,8.41
2023-03-21T04:06:22.090Z,8.32
2023-03-21T04:08:51.978Z,8.24
2023-03-21T04:11:19.855Z,8.30
2023-03-21T04:13:53.275Z,8.27
2023-03-21T04:16:23.462Z,8.31
2023-03-21T04:18:52.474Z,8.33
2023-03-21T04:21:21.596Z,8.33
2023-03-21T04:23:49.461Z,8.34
2023-03-21T04:26:17.178Z,8.34
2023-03-21T04:29:00.344Z,8.28
2023-03-21T04:31:56.922Z,8.25
2023-03-21T04:34:28.309Z,8.25
2023-03-21T04:36:59.011Z,8.25
2023-03-21T04:39:26.874Z,8.19
2023-03-21T04:41:55.014Z,8.11
2023-03-21T04:44:24.188Z,8.14
2023-03-21T04:46:52.160Z,8.19
2023-03-21T04:49:21.384Z,8.16
2023-03-21T04:51:49.033Z,8.13
2023-03-21T04:54:21.139Z,8.15
2023-03-21T04:56:48.746Z,8.12
2023-03-21T04:59:17.490Z,8.17
2023-03-21T05:01:46.760Z,8.17
2023-03-21T05:04:15.740Z,8.18
2023-03-21T05:06:43.951Z,8.21
2023-03-21T05:09:12.843Z,8.21
2023-03-21T05:11:41.831Z,8.17
2023-03-21T05:14:15.343Z,8.14
2023-03-21T05:16:53.031Z,8.14
2023-03-21T05:19:23.657Z,8.16
2023-03-21T05:21:52.992Z,8.16
2023-03-21T05:24:23.844Z,8.15
2023-03-21T05:26:56.016Z,8.18
2023-03-21T05:29:27.594Z,8.17
2023-03-21T05:32:03.511Z,8.13
2023-03-21T05:34:32.411Z,8.22
2023-03-21T05:37:01.173Z,8.24
2023-03-21T05:39:42.694Z,8.28
2023-03-21T05:42:18.435Z,8.31
2023-03-21T05:44:47.424Z,8.32
2023-03-21T05:47:19.004Z,8.36
2023-03-21T05:49:48.447Z,8.39
2023-03-21T05:52:16.564Z,8.37
2023-03-21T05:54:46.235Z,8.41
2023-03-21T05:57:13.862Z,8.44
2023-03-21T05:59:58.556Z,8.45
2023-03-21T06:02:28.836Z,8.44
2023-03-21T06:05:00.663Z,8.48
2023-03-21T06:07:28.245Z,8.52
2023-03-21T06:09:56.433Z,8.54
2023-03-21T06:12:24.076Z,8.56
2023-03-21T06:15:14.959Z,8.61
2023-03-21T06:17:55.904Z,8.64
2023-03-21T06:20:23.548Z,8.72
2023-03-21T06:22:54.809Z,8.75
2023-03-21T06:25:22.979Z,8.79
2023-03-21T06:27:50.765Z,8.84
2023-03-21T06:30:19.969Z,8.90
2023-03-21T06:33:15.371Z,8.95
2023-03-21T06:35:44.253Z,8.97
2023-03-21T06:38:12.134Z,9.02
2023-03-21T06:40:40.869Z,9.08
2023-03-21T06:43:08.524Z,9.13
2023-03-21T06:45:36.383Z,9.17
2023-03-21T06:48:04.325Z,9.22
2023-03-21T06:50:44.230Z,9.27
2023-03-21T06:53:12.104Z,9.34
2023-03-21T06:55:58.647Z,9.39
2023-03-21T06:58:27.036Z,9.48
2023-03-21T07:00:55.198Z,9.52
2023-03-21T07:03:23.516Z,9.56
2023-03-21T07:05:53.964Z,9.59
2023-03-21T07:08:23.694Z,9.61
2023-03-21T07:10:51.615Z,9.72
2023-03-21T07:13:19.235Z,9.75
2023-03-21T07:15:54.342Z,9.82
2023-03-21T07:18:22.039Z,9.89
2023-03-21T07:20:51.896Z,9.94
2023-03-21T07:23:23.285Z,10.00
2023-03-21T07:25:52.371Z,10.05
2023-03-21T07:28:20.854Z,10.12
2023-03-21T07:30:55.236Z,10.23
2023-03-21T07:33:23.280Z,10.29
2023-03-21T07:35:51.669Z,10.39
2023-03-21T07:38:21.519Z,10.49
2023-03-21T07:40:49.509Z,10.58
2023-03-21T07:45:47.937Z,10.68
2023-03-21T07:48:17.504Z,10.75
2023-03-21T07:50:45.296Z,10.85
2023-03-21T07:53:13.015Z,10.93
2023-03-21T07:55:41.918Z,11.02
2023-03-21T07:58:09.937Z,11.11
2023-03-21T08:00:37.718Z,11.22
2023-03-21T08:03:06.289Z,11.33
2023-03-21T08:05:36.634Z,11.44
2023-03-21T08:08:05.115Z,11.45
2023-03-21T08:10:32.729Z,11.54
2023-03-21T08:13:01.944Z,11.75
2023-03-21T08:15:30.065Z,11.89
2023-03-21T08:17:59.634Z,12.01
2023-03-21T08:20:27.660Z,12.08
2023-03-21T08:22:55.434Z,12.19
2023-03-21T08:25:24.038Z,12.26
2023-03-21T08:27:52.640Z,12.19
2023-03-21T08:30:23.754Z,11.87
2023-03-21T08:32:51.430Z,12.26
2023-03-21T08:35:20.648Z,12.42
2023-03-21T08:37:48.799Z,12.58
2023-03-21T08:40:20.679Z,12.71
2023-03-21T08:42:48.536Z,12.82
2023-03-21T08:45:17.850Z,12.90
2023-03-21T08:47:47.454Z,12.94
2023-03-21T08:50:17.735Z,13.06
2023-03-21T08:52:45.473Z,13.16
2023-03-21T08:55:14.819Z,13.31
2023-03-21T08:57:42.896Z,13.51
2023-03-21T09:00:14.763Z,13.64
2023-03-21T09:02:43.864Z,13.89
2023-03-21T09:05:13.825Z,14.06
2023-03-21T09:07:42.388Z,14.16
2023-03-21T09:10:21.083Z,14.18
2023-03-21T09:12:51.637Z,14.28
2023-03-21T09:15:21.945Z,14.38
2023-03-21T09:17:52.617Z,14.55
2023-03-21T09:20:26.269Z,14.51
2023-03-21T09:22:54.704Z,14.61
2023-03-21T09:25:22.439Z,14.90
2023-03-21T09:27:51.430Z,14.81
2023-03-21T09:30:22.286Z,14.92
2023-03-21T09:32:53.349Z,14.87
2023-03-21T09:35:22.755Z,15.20
2023-03-21T09:37:50.910Z,15.31
2023-03-21T09:40:21.251Z,15.37
2023-03-21T09:42:59.907Z,15.18
2023-03-21T09:45:36.422Z,15.33
2023-03-21T09:48:07.685Z,15.63
2023-03-21T09:50:39.038Z,15.54
2023-03-21T09:53:12.368Z,15.88
2023-03-21T09:55:42.686Z,16.06
2023-03-21T09:58:27.117Z,16.29
2023-03-21T10:01:02.324Z,16.17
2023-03-21T10:03:35.031Z,16.17
2023-03-21T10:06:08.320Z,16.14
2023-03-21T10:08:41.419Z,16.24
2023-03-21T10:11:14.581Z,16.33
2023-03-21T10:13:45.590Z,16.24
2023-03-21T10:16:17.464Z,16.27
2023-03-21T10:18:46.861Z,16.48
2023-03-21T10:21:47.442Z,16.40
2023-03-21T10:24:13.461Z,16.38
2023-03-21T10:26:41.598Z,16.30
2023-03-21T10:29:13.425Z,16.24
2023-03-21T10:31:42.796Z,16.42
2023-03-21T10:34:17.176Z,16.55
2023-03-21T10:36:46.823Z,16.89
2023-03-21T10:39:25.833Z,17.12
2023-03-21T10:41:53.473Z,17.02
2023-03-21T10:44:22.268Z,16.99
2023-03-21T10:46:55.114Z,17.22
2023-03-21T10:49:23.374Z,17.72
2023-03-21T10:51:54.871Z,17.89
2023-03-21T10:54:29.207Z,17.80
2023-03-21T10:56:59.735Z,17.94
2023-03-21T10:59:34.606Z,17.83
2023-03-21T11:02:05.561Z,17.69
2023-03-21T11:04:34.158Z,17.61
2023-03-21T11:07:08.144Z,17.61
2023-03-21T11:09:47.739Z,17.54
2023-03-21T11:12:17.400Z,17.11
2023-03-21T11:14:46.926Z,17.77
2023-03-21T11:17:23.148Z,17.87
2023-03-21T11:19:53.137Z,17.94
2023-03-21T11:22:24.636Z,18.18
2023-03-21T11:24:55.147Z,18.52
2023-03-21T11:27:22.861Z,18.78
2023-03-21T11:29:52.482Z,18.47
2023-03-21T11:32:26.002Z,18.15
2023-03-21T11:34:58.725Z,18.38
2023-03-21T11:37:29.619Z,19.05
2023-03-21T11:40:06.255Z,18.95
2023-03-21T11:42:42.342Z,19.31
2023-03-21T11:45:13.872Z,19.18
2023-03-21T11:47:41.835Z,18.79
2023-03-21T11:50:19.322Z,18.82
2023-03-21T11:53:03.056Z,18.83
2023-03-21T11:55:42.198Z,19.06
2023-03-21T11:58:24.446Z,19.44
2023-03-21T12:01:02.259Z,19.62
2023-03-21T12:03:55.135Z,19.76
2023-03-21T12:06:29.637Z,19.63
2023-03-21T12:09:22.001Z,19.99
2023-03-21T12:12:04.023Z,20.20
2023-03-21T12:14:41.409Z,21.08
2023-03-21T12:17:22.215Z,21.44
2023-03-21T12:20:02.131Z,21.14
2023-03-21T12:22:35.796Z,21.02
2023-03-21T12:25:08.657Z,20.32
2023-03-21T12:27:46.404Z,19.03
2023-03-21T12:30:32.959Z,19.00
2023-03-21T12:33:25.396Z,19.20
2023-03-21T12:36:12.964Z,19.63
2023-03-21T12:38:44.497Z,18.78
2023-03-21T12:41:34.105Z,18.92
2023-03-21T12:44:05.339Z,19.26
2023-03-21T12:46:38.309Z,19.67
2023-03-21T12:49:10.953Z,19.60
2023-03-21T12:51:42.849Z,19.38
2023-03-21T12:54:17.959Z,19.38
2023-03-21T12:56:53.094Z,19.62
2023-03-21T12:59:36.255Z,19.16
2023-03-21T13:02:18.336Z,19.08
2023-03-21T13:04:52.306Z,19.16
2023-03-21T13:07:25.125Z,19.36
2023-03-21T13:09:55.206Z,19.77
2023-03-21T13:12:53.034Z,19.39
2023-03-21T13:15:44.750Z,19.66
2023-03-21T13:18:20.896Z,19.63
2023-03-21T13:20:51.301Z,19.38
2023-03-21T13:23:19.646Z,19.47
2023-03-21T13:25:49.873Z,19.25
2023-03-21T13:28:23.145Z,18.55
2023-03-21T13:30:52.147Z,18.54
2023-03-21T13:33:26.019Z,17.85
2023-03-21T13:36:05.262Z,17.64
2023-03-21T13:38:35.117Z,17.70
2023-03-21T13:41:08.576Z,17.46
2023-03-21T13:43:43.595Z,17.59
2023-03-21T13:46:13.212Z,17.68
2023-03-21T13:48:59.430Z,17.28
2023-03-21T13:51:44.757Z,17.75
2023-03-21T13:54:24.181Z,17.78
2023-03-21T13:56:57.778Z,17.74
2023-03-21T13:59:43.350Z,17.63
2023-03-21T14:02:33.831Z,17.10
2023-03-21T14:05:06.384Z,17.20
2023-03-21T14:07:36.726Z,17.17
2023-03-21T14:10:09.266Z,17.45
2023-03-21T14:12:40.636Z,17.79
2023-03-21T14:15:18.050Z,17.62
2023-03-21T14:17:51.761Z,17.43
2023-03-21T14:20:23.822Z,17.67
2023-03-21T14:22:51.467Z,17.94
2023-03-21T14:25:21.337Z,18.41
2023-03-21T14:27:51.276Z,18.59
2023-03-21T14:30:26.867Z,18.15
2023-03-21T14:32:57.370Z,18.12
2023-03-21T14:35:26.562Z,17.83
2023-03-21T14:37:54.133Z,17.95
2023-03-21T14:40:24.499Z,17.56
2023-03-21T14:42:52.739Z,17.50
2023-03-21T14:45:24.017Z,17.70
2023-03-21T14:47:59.739Z,17.42
2023-03-21T14:50:34.862Z,17.44
2023-03-21T14:53:02.717Z,17.66
2023-03-21T14:55:30.542Z,17.72
2023-03-21T14:57:58.308Z,17.94
2023-03-21T15:00:29.868Z,17.53
2023-03-21T15:02:59.961Z,17.49
2023-03-21T15:05:32.444Z,17.53
2023-03-21T15:08:01.888Z,17.74
2023-03-21T15:10:32.450Z,17.83
2023-03-21T15:13:03.381Z,18.02
2023-03-21T15:15:33.223Z,17.47
2023-03-21T15:18:05.604Z,17.16
2023-03-21T15:20:37.515Z,17.37
2023-03-21T15:23:10.614Z,17.38
2023-03-21T15:25:39.487Z,17.16
2023-03-21T15:28:07.384Z,17.51
2023-03-21T15:30:36.578Z,17.69
2023-03-21T15:33:09.897Z,17.58
2023-03-21T15:35:41.199Z,17.58
2023-03-21T15:38:23.222Z,17.44
2023-03-21T15:40:51.148Z,17.63
2023-03-21T15:43:20.644Z,17.58
2023-03-21T15:45:51.784Z,17.72
2023-03-21T15:48:23.151Z,17.53
2023-03-21T15:50:57.270Z,17.43
2023-03-21T15:53:25.521Z,17.54
2023-03-21T15:56:02.038Z,17.59
2023-03-21T15:58:36.027Z,17.54
2023-03-21T16:01:07.721Z,17.42
2023-03-21T16:03:37.997Z,17.40
2023-03-21T16:06:11.022Z,17.33
2023-03-21T16:08:45.896Z,17.17
2023-03-21T16:11:18.339Z,17.22
2023-03-21T16:13:46.301Z,17.12
2023-03-21T16:16:22.327Z,17.16
2023-03-21T16:18:50.044Z,17.14
2023-03-21T16:21:20.441Z,17.02
2023-03-21T16:23:49.004Z,16.94
2023-03-21T16:26:19.734Z,16.91
2023-03-21T16:28:47.605Z,16.90
2023-03-21T16:31:18.440Z,16.89
2023-03-21T16:33:48.654Z,16.84
2023-03-21T16:36:18.567Z,16.74
2023-03-21T16:38:47.447Z,16.70
2023-03-21T16:41:15.776Z,16.67
2023-03-21T16:43:44.772Z,16.61
2023-03-21T16:46:16.522Z,16.65
2023-03-21T16:48:45.783Z,16.60
2023-03-21T16:51:16.323Z,16.53
2023-03-21T16:53:44.579Z,16.46
2023-03-21T16:56:16.530Z,16.38
2023-03-21T16:59:07.793Z,16.36
2023-03-21T17:01:38.307Z,16.30
2023-03-21T17:04:06.126Z,16.26
2023-03-21T17:06:41.042Z,16.18
2023-03-21T17:09:08.663Z,16.12
2023-03-21T17:11:37.458Z,16.09
2023-03-21T17:14:05.099Z,16.08
2023-03-21T17:16:33.225Z,16.05
2023-03-21T17:19:01.713Z,15.96
2023-03-21T17:21:30.701Z,15.87
2023-03-21T17:23:59.696Z,15.76
2023-03-21T17:26:30.352Z,15.68
2023-03-21T17:28:58.534Z,15.61
2023-03-21T17:31:27.997Z,15.59
2023-03-21T17:33:55.776Z,15.55
2023-03-21T17:36:29.358Z,15.52
2023-03-21T17:38:57.769Z,15.51
2023-03-21T17:41:27.496Z,15.44
2023-03-21T17:43:55.787Z,15.39
2023-03-21T17:46:27.107Z,15.36
2023-03-21T17:48:55.103Z,15.32
2023-03-21T17:51:25.993Z,15.22
2023-03-21T17:53:54.250Z,15.15
2023-03-21T17:56:25.804Z,15.12
2023-03-21T17:58:55.364Z,15.14
2023-03-21T18:01:23.707Z,15.13
2023-03-21T18:03:51.552Z,15.07
2023-03-21T18:06:21.572Z,15.03
2023-03-21T18:08:50.060Z,14.85
2023-03-21T18:11:18.467Z,14.78
2023-03-21T18:13:47.524Z,14.65
2023-03-21T18:16:18.160Z,14.54
2023-03-21T18:18:46.666Z,14.48
2023-03-21T18:21:14.515Z,14.37
2023-03-21T18:23:45.941Z,14.29
2023-03-21T18:26:18.208Z,14.17
2023-03-21T18:28:46.767Z,14.07
2023-03-21T18:31:19.810Z,13.97
2023-03-21T18:33:50.175Z,13.88
2023-03-21T18:36:24.985Z,13.86
2023-03-21T18:38:57.807Z,13.78
2023-03-21T18:41:25.949Z,13.68
2023-03-21T18:44:09.358Z,13.60
2023-03-21T18:46:47.029Z,13.52
2023-03-21T18:49:58.729Z,13.47
2023-03-21T18:52:03.040Z,13.48
2023-03-21T18:54:31.614Z,13.57
2023-03-21T18:57:34.552Z,13.56
2023-03-21T18:59:47.643Z,13.37
2023-03-21T19:02:16.870Z,13.26
2023-03-21T19:04:45.087Z,13.08
2023-03-21T19:07:13.149Z,12.98
2023-03-21T19:12:29.657Z,12.77
2023-03-21T19:14:57.562Z,12.68
2023-03-21T19:18:21.845Z,12.60
2023-03-21T19:20:16.529Z,12.46
2023-03-21T19:22:44.392Z,12.39
2023-03-21T19:25:13.142Z,12.34
2023-03-21T19:27:41.478Z,12.24
2023-03-21T19:30:15.269Z,12.21
2023-03-21T19:32:45.131Z,12.17
2023-03-21T19:35:14.115Z,12.14
2023-03-21T19:37:42.234Z,12.14
2023-03-21T19:40:11.191Z,12.10
2023-03-21T19:42:42.853Z,12.19
2023-03-21T19:45:11.893Z,12.28
2023-03-21T19:47:39.637Z,12.33
2023-03-21T19:52:58.233Z,12.44
2023-03-21T19:55:27.016Z,12.43
2023-03-21T19:57:54.842Z,12.40
2023-03-21T20:00:22.926Z,12.35
2023-03-21T20:02:51.581Z,12.39
2023-03-21T20:05:22.067Z,12.38
2023-03-21T20:07:50.125Z,12.40
2023-03-21T20:10:17.760Z,12.48
2023-03-21T20:12:46.137Z,12.51
2023-03-21T20:15:20.869Z,12.54
2023-03-21T20:17:50.130Z,12.58
2023-03-21T20:20:19.114Z,12.59
2023-03-21T20:23:10.774Z,12.63
2023-03-21T20:25:41.146Z,12.66
2023-03-21T20:28:24.559Z,12.61
2023-03-21T20:30:56.759Z,12.46
2023-03-21T20:33:25.101Z,12.25
2023-03-21T20:38:46.247Z,11.57
2023-03-21T20:41:14.416Z,11.52
2023-03-21T20:46:30.630Z,11.07
2023-03-21T20:48:58.371Z,10.98
2023-03-21T20:54:18.431Z,11.02
2023-03-21T20:56:46.157Z,11.21
2023-03-21T20:59:26.172Z,11.44
2023-03-21T21:01:54.867Z,11.62
2023-03-21T21:04:23.161Z,11.78
2023-03-21T21:06:55.007Z,11.91
2023-03-21T21:09:24.097Z,12.00
2023-03-21T21:12:09.722Z,12.06
2023-03-21T21:14:38.229Z,12.16
2023-03-21T21:17:26.704Z,12.21
2023-03-21T21:19:55.357Z,12.00
2023-03-21T21:22:23.020Z,11.84
2023-03-21T21:24:51.945Z,11.60
2023-03-21T21:27:19.886Z,11.51
2023-03-21T21:29:49.859Z,11.45
2023-03-21T21:32:19.737Z,11.47
2023-03-21T21:34:48.003Z,11.43
2023-03-21T21:37:15.648Z,11.44
2023-03-21T21:39:43.261Z,11.52
2023-03-21T21:42:12.295Z,11.68
2023-03-21T21:44:44.080Z,11.78
2023-03-21T21:47:12.214Z,11.81
2023-03-21T21:49:39.969Z,11.87
2023-03-21T21:52:08.555Z,11.93
2023-03-21T21:54:36.171Z,11.91
2023-03-21T21:57:04.204Z,11.90
2023-03-21T21:59:33.878Z,11.94
2023-03-21T22:02:05.956Z,11.90
2023-03-21T22:04:34.587Z,11.90
2023-03-21T22:07:03.038Z,11.92
2023-03-21T22:09:30.745Z,11.88
2023-03-21T22:11:59.083Z,11.88
2023-03-21T22:14:26.700Z,11.89
2023-03-21T22:16:55.775Z,11.89
2023-03-21T22:19:23.378Z,11.87
2023-03-21T22:21:51.525Z,11.89
2023-03-21T22:24:19.129Z,11.84
2023-03-21T22:26:47.937Z,11.88
2023-03-21T22:29:15.560Z,11.85
2023-03-21T22:31:43.473Z,11.83
2023-03-21T22:34:12.539Z,11.83
2023-03-21T22:36:47.318Z,11.86
2023-03-21T22:39:14.913Z,11.81
2023-03-21T22:41:42.510Z,11.72
2023-03-21T22:44:10.260Z,11.65
2023-03-21T22:46:37.901Z,11.42
2023-03-21T22:49:05.856Z,11.35
2023-03-21T22:51:35.020Z,11.24
2023-03-21T22:54:02.662Z,10.97
2023-03-21T22:56:30.420Z,10.77
2023-03-21T22:59:00.139Z,10.66
2023-03-21T23:01:28.112Z,10.68
2023-03-21T23:03:55.847Z,10.81
2023-03-21T23:06:23.778Z,11.03
2023-03-21T23:08:52.707Z,11.23
2023-03-21T23:11:21.272Z,11.34
2023-03-21T23:13:58.717Z,11.41
2023-03-21T23:16:34.780Z,11.44
2023-03-21T23:19:03.178Z,11.46
2023-03-21T23:21:34.443Z,11.46
2023-03-21T23:24:03.588Z,11.45
2023-03-21T23:26:31.982Z,11.38
2023-03-21T23:28:59.723Z,11.35
2023-03-21T23:31:28.314Z,11.41
2023-03-21T23:33:58.750Z,11.50
2023-03-21T23:36:26.547Z,11.51
2023-03-21T23:38:54.710Z,11.57
2023-03-21T23:41:25.574Z,11.58
2023-03-21T23:43:53.578Z,11.58
2023-03-21T23:46:21.833Z,11.52
2023-03-21T23:48:50.215Z,11.61
2023-03-21T23:51:19.277Z,11.64
2023-03-21T23:53:47.796Z,11.61
2023-03-21T23:56:17.378Z,11.58
2023-03-21T23:58:47.432Z,11.58
